Time,TemperatureF,DewpointF,PressureIn,WindDirection,WindDirectionDegrees,WindSpeedMPH,WindSpeedGustMPH,Humidity,HourlyPrecipIn,Conditions,Clouds,dailyrainin,SoftwareType,DateUTC
2013-11-27 00:22:00,20.0,14.0,30.25,SSW,202,12.0,15.0,78,0.00,,,0.00,,2013-11-27 07:22:00,
2013-11-27 00:52:00,19.0,14.0,30.24,South,191,10.0,12.0,80,0.00,,,0.00,,2013-11-27 07:52:00,
2013-11-27 01:21:00,18.0,13.0,30.21,South,181,12.0,13.0,82,0.00,,,0.00,,2013-11-27 08:21:00,
2013-11-27 01:52:00,18.0,13.0,30.20,SSW,195,10.0,12.0,82,0.00,,,0.00,,2013-11-27 08:52:00,
2013-11-27 02:22:00,19.0,14.0,30.19,SSW,202,13.0,16.0,82,0.00,,,0.00,,2013-11-27 09:22:00,
2013-11-27 02:54:00,19.0,14.0,30.18,SSW,198,13.0,16.0,81,0.00,,,0.00,,2013-11-27 09:54:00,
2013-11-27 03:23:00,18.0,13.0,30.17,South,175,11.0,13.0,81,0.00,,,0.00,,2013-11-27 10:23:00,
2013-11-27 03:53:00,18.0,13.0,30.15,SSW,196,10.0,13.0,82,0.00,,,0.00,,2013-11-27 10:53:00,
2013-11-27 04:22:00,20.0,15.0,30.15,SSW,205,10.0,13.0,82,0.00,,,0.00,,2013-11-27 11:22:00,
2013-11-27 04:53:00,22.0,17.0,30.13,SSW,198,9.0,13.0,81,0.00,,,0.00,,2013-11-27 11:53:00,
2013-11-27 05:21:00,22.0,17.0,30.14,SSW,209,11.0,14.0,82,0.00,,,0.00,,2013-11-27 12:21:00,
2013-11-27 05:52:00,21.0,17.0,30.13,South,178,13.0,16.0,84,0.00,,,0.00,,2013-11-27 12:52:00,
2013-11-27 06:22:00,22.0,18.0,30.13,SSW,210,7.0,12.0,84,0.00,,,0.00,,2013-11-27 13:22:00,
2013-11-27 06:52:00,21.0,17.0,30.12,SSW,203,7.0,11.0,85,0.00,,,0.00,,2013-11-27 13:52:00,
2013-11-27 07:22:00,21.0,17.0,30.12,SSW,192,6.0,8.0,86,0.00,,,0.00,,2013-11-27 14:22:00,
2013-11-27 07:53:00,23.0,19.0,30.10,SSW,193,7.0,11.0,85,0.00,,,0.00,,2013-11-27 14:53:00,
2013-11-27 08:22:00,28.0,24.0,30.10,SSW,209,7.0,10.0,83,0.00,,,0.00,,2013-11-27 15:22:00,
2013-11-27 08:53:00,34.0,26.0,30.10,SW,216,12.0,14.0,73,0.00,,,0.00,,2013-11-27 15:53:00,
2013-11-27 09:43:00,41.0,28.0,30.07,SW,220,18.0,21.0,59,0.00,,,0.00,,2013-11-27 16:43:00,
2013-11-27 10:22:00,48.0,26.0,30.06,SW,222,20.0,24.0,42,0.00,,,0.00,,2013-11-27 17:22:00,
2013-11-27 10:52:00,51.0,23.0,30.02,SW,232,24.0,26.0,33,0.00,,,0.00,,2013-11-27 17:52:00,
2013-11-27 11:22:00,53.0,22.0,30.02,SW,224,23.0,28.0,30,0.00,,,0.00,,2013-11-27 18:22:00,
2013-11-27 11:52:00,55.0,22.0,30.00,SW,233,23.0,27.0,27,0.00,,,0.00,,2013-11-27 18:52:00,
2013-11-27 12:21:00,57.0,23.0,29.97,SW,229,19.0,26.0,27,0.00,,,0.00,,2013-11-27 19:21:00,
2013-11-27 12:52:00,58.0,22.0,29.96,SW,220,20.0,24.0,25,0.00,,,0.00,,2013-11-27 19:52:00,
2013-11-27 13:22:00,59.0,21.0,29.94,SW,223,18.0,21.0,23,0.00,,,0.00,,2013-11-27 20:22:00,
2013-11-27 13:52:00,60.0,22.0,29.95,SW,226,16.0,22.0,23,0.00,,,0.00,,2013-11-27 20:52:00,
2013-11-27 14:22:00,60.0,21.0,29.93,WSW,250,17.0,19.0,22,0.00,,,0.00,,2013-11-27 21:22:00,
2013-11-27 14:53:00,61.0,21.0,29.93,SW,232,12.0,15.0,21,0.00,,,0.00,,2013-11-27 21:53:00,
2013-11-27 15:23:00,61.0,20.0,29.91,WSW,243,10.0,13.0,20,0.00,,,0.00,,2013-11-27 22:23:00,
2013-11-27 15:52:00,60.0,20.0,29.93,SW,230,9.0,11.0,21,0.00,,,0.00,,2013-11-27 22:52:00,
2013-11-27 16:22:00,55.0,21.0,29.93,SW,220,11.0,12.0,26,0.00,,,0.00,,2013-11-27 23:22:00,
2013-11-27 16:53:00,49.0,19.0,29.90,SW,223,13.0,14.0,30,0.00,,,0.00,,2013-11-27 23:53:00,
2013-11-27 17:22:00,45.0,18.0,29.92,SSW,213,11.0,17.0,34,0.00,,,0.00,,2013-11-28 00:22:00,
2013-11-27 17:52:00,42.0,19.0,29.92,SW,232,7.0,9.0,40,0.00,,,0.00,,2013-11-28 00:52:00,
2013-11-27 18:22:00,39.0,19.0,29.93,WSW,246,6.0,8.0,44,0.00,,,0.00,,2013-11-28 01:22:00,
2013-11-27 18:52:00,36.0,18.0,29.93,WSW,254,7.0,8.0,48,0.00,,,0.00,,2013-11-28 01:52:00,
2013-11-27 19:21:00,34.0,18.0,29.95,WSW,250,9.0,11.0,51,0.00,,,0.00,,2013-11-28 02:21:00,
2013-11-27 20:21:00,33.0,18.0,29.96,West,281,5.0,6.0,53,0.00,,,0.00,,2013-11-28 03:21:00,
2013-11-27 20:53:00,32.0,18.0,29.96,WSW,251,6.0,7.0,55,0.00,,,0.00,,2013-11-28 03:53:00,
2013-11-27 21:23:00,32.0,18.0,29.96,WSW,254,7.0,8.0,56,0.00,,,0.00,,2013-11-28 04:23:00,
2013-11-27 21:52:00,31.0,18.0,29.98,WSW,254,6.0,8.0,58,0.00,,,0.00,,2013-11-28 04:52:00,
2013-11-27 22:12:00,31.0,18.0,29.97,West,280,3.0,6.0,59,0.00,,,0.00,,2013-11-28 05:12:00,
2013-11-27 22:22:00,31.0,18.0,29.98,West,261,5.0,6.0,57,0.00,,,0.00,,2013-11-28 05:22:00,
2013-11-27 22:53:00,30.0,17.0,29.98,West,280,2.0,5.0,59,0.00,,,0.00,,2013-11-28 05:53:00,
2013-11-27 23:22:00,31.0,18.0,29.99,WNW,291,3.0,6.0,59,0.00,,,0.00,,2013-11-28 06:22:00,
2013-11-27 23:42:00,31.0,18.0,30.00,NW,311,3.0,5.0,59,0.00,,,0.00,,2013-11-28 06:42:00,
2013-11-27 23:52:00,32.0,20.0,30.01,NW,319,3.0,7.0,60,0.00,,,0.00,,2013-11-28 06:52:00,